createdAt,value
2023-05-20T00:00:50.524Z,102532.78
2023-05-20T00:03:17.683Z,102546.41
2023-05-20T00:05:44.518Z,102539.75
2023-05-20T00:08:11.333Z,102517.81
2023-05-20T00:10:38.427Z,102538.47
2023-05-20T00:13:06.596Z,102541.75
2023-05-20T00:15:34.784Z,102544.88
2023-05-20T00:18:02.668Z,102542.31
2023-05-20T00:20:29.404Z,102530.84
2023-05-20T00:22:58.560Z,102546.25
2023-05-20T00:25:25.349Z,102536.94
2023-05-20T00:27:52.094Z,102536.59
2023-05-20T00:30:18.620Z,102538.97
2023-05-20T00:32:45.412Z,102540.69
2023-05-20T00:35:11.978Z,102542.50
2023-05-20T00:37:38.431Z,102538.13
2023-05-20T00:40:05.771Z,102533.31
2023-05-20T00:42:32.259Z,102536.19
2023-05-20T00:44:58.738Z,102519.97
2023-05-20T00:47:34.484Z,102523.59
2023-05-20T00:50:01.557Z,102540.50
2023-05-20T00:52:31.348Z,102540.50
2023-05-20T00:54:58.934Z,102537.63
2023-05-20T00:57:26.066Z,102531.50
2023-05-20T00:59:53.158Z,102525.94
2023-05-20T01:02:20.228Z,102506.47
2023-05-20T01:04:47.481Z,102484.00
2023-05-20T01:07:16.448Z,102532.88
2023-05-20T01:09:43.515Z,102534.41
2023-05-20T01:12:18.127Z,102534.28
2023-05-20T01:14:50.808Z,102528.00
2023-05-20T01:17:21.131Z,102518.66
2023-05-20T01:19:48.652Z,102527.25
2023-05-20T01:22:16.223Z,102481.78
2023-05-20T01:24:49.586Z,102525.22
2023-05-20T01:27:16.147Z,102499.00
2023-05-20T01:29:44.100Z,102528.75
2023-05-20T01:32:14.792Z,102519.75
2023-05-20T01:34:41.956Z,102484.03
2023-05-20T01:37:09.206Z,102474.75
2023-05-20T01:39:38.372Z,102531.41
2023-05-20T01:42:06.303Z,102507.88
2023-05-20T01:44:33.762Z,102500.59
2023-05-20T01:47:01.494Z,102533.22
2023-05-20T01:49:28.913Z,102535.06
2023-05-20T01:51:55.974Z,102527.13
2023-05-20T01:54:22.460Z,102529.91
2023-05-20T01:56:50.137Z,102489.91
2023-05-20T01:59:16.772Z,102504.34
2023-05-20T02:01:43.343Z,102523.81
2023-05-20T02:04:10.393Z,102519.09
2023-05-20T02:06:36.896Z,102528.50
2023-05-20T02:09:03.554Z,102499.44
2023-05-20T02:11:30.061Z,102516.94
2023-05-20T02:13:57.062Z,102514.63
2023-05-20T02:16:23.940Z,102522.31
2023-05-20T02:18:53.025Z,102511.75
2023-05-20T02:21:19.597Z,102517.28
2023-05-20T02:23:46.506Z,102498.44
2023-05-20T02:26:13.231Z,102509.28
2023-05-20T02:28:43.503Z,102483.41
2023-05-20T02:31:09.995Z,102505.97
2023-05-20T02:33:36.480Z,102495.78
2023-05-20T02:36:03.076Z,102493.34
2023-05-20T02:38:31.829Z,102509.78
2023-05-20T02:41:04.677Z,102504.53
2023-05-20T02:43:32.517Z,102518.97
2023-05-20T02:45:59.109Z,102506.59
2023-05-20T02:48:25.770Z,102501.75
2023-05-20T02:50:53.134Z,102478.66
2023-05-20T02:53:19.719Z,102493.66
2023-05-20T02:55:49.974Z,102501.09
2023-05-20T02:58:17.275Z,102501.97
2023-05-20T03:00:44.474Z,102494.38
2023-05-20T03:03:11.166Z,102497.16
2023-05-20T03:05:38.153Z,102499.94
2023-05-20T03:08:09.704Z,102511.38
2023-05-20T03:10:39.534Z,102509.75
2023-05-20T03:13:08.839Z,102505.56
2023-05-20T03:15:36.152Z,102515.41
2023-05-20T03:18:03.556Z,102511.22
2023-05-20T03:20:30.910Z,102497.94
2023-05-20T03:22:57.414Z,102515.94
2023-05-20T03:25:25.080Z,102480.06
2023-05-20T03:27:51.913Z,102473.63
2023-05-20T03:30:19.039Z,102508.00
2023-05-20T03:32:45.621Z,102464.25
2023-05-20T03:35:12.476Z,102442.66
2023-05-20T03:37:39.860Z,102495.63
2023-05-20T03:40:08.023Z,102500.00
2023-05-20T03:42:34.724Z,102494.31
2023-05-20T03:45:01.300Z,102462.88
2023-05-20T03:47:28.413Z,102470.38
2023-05-20T03:49:55.187Z,102489.13
2023-05-20T03:52:22.233Z,102484.50
2023-05-20T03:54:48.940Z,102502.91
2023-05-20T03:57:15.907Z,102500.34
2023-05-20T03:59:42.450Z,102499.19
2023-05-20T04:02:09.802Z,102484.97
2023-05-20T04:04:36.467Z,102495.38
2023-05-20T04:07:05.734Z,102502.97
2023-05-20T04:09:32.242Z,102493.25
2023-05-20T04:11:59.024Z,102478.06
2023-05-20T04:14:25.715Z,102482.09
2023-05-20T04:16:52.619Z,102508.75
2023-05-20T04:19:19.905Z,102511.84
2023-05-20T04:21:46.601Z,102499.44
2023-05-20T04:24:13.148Z,102511.75
2023-05-20T04:26:39.933Z,102505.97
2023-05-20T04:29:06.364Z,102509.03
2023-05-20T04:31:32.963Z,102515.16
2023-05-20T04:33:59.608Z,102467.78
2023-05-20T04:36:28.968Z,102513.06
2023-05-20T04:38:55.989Z,102505.47
2023-05-20T04:41:22.882Z,102472.00
2023-05-20T04:43:49.890Z,102459.81
2023-05-20T04:46:16.757Z,102469.41
2023-05-20T04:48:48.024Z,102495.78
2023-05-20T04:51:14.537Z,102501.69
2023-05-20T04:53:40.980Z,102499.84
2023-05-20T04:56:08.215Z,102507.66
2023-05-20T04:58:35.517Z,102504.00
2023-05-20T05:01:02.728Z,102513.63
2023-05-20T05:03:29.534Z,102501.09
2023-05-20T05:05:58.188Z,102499.50
2023-05-20T05:08:26.507Z,102474.59
2023-05-20T05:10:53.114Z,102487.44
2023-05-20T05:13:19.579Z,102504.94
2023-05-20T05:15:46.066Z,102495.81
2023-05-20T05:18:12.707Z,102490.16
2023-05-20T05:20:39.270Z,102507.88
2023-05-20T05:23:06.626Z,102491.19
2023-05-20T05:25:33.303Z,102500.16
2023-05-20T05:28:00.060Z,102489.53
2023-05-20T05:30:27.186Z,102505.66
2023-05-20T05:32:53.784Z,102502.63
2023-05-20T05:35:20.463Z,102491.28
2023-05-20T05:37:46.953Z,102474.47
2023-05-20T05:40:13.634Z,102505.00
2023-05-20T05:42:40.468Z,102504.53
2023-05-20T05:45:07.638Z,102511.25
2023-05-20T05:47:34.163Z,102512.50
2023-05-20T05:50:00.647Z,102503.88
2023-05-20T05:52:27.379Z,102504.88
2023-05-20T05:54:54.365Z,102502.09
2023-05-20T05:57:20.805Z,102511.63
2023-05-20T05:59:47.329Z,102501.50
2023-05-20T06:02:14.718Z,102503.97
2023-05-20T06:04:41.606Z,102502.72
2023-05-20T06:07:08.569Z,102510.41
2023-05-20T06:09:35.272Z,102505.13
2023-05-20T06:12:02.568Z,102504.34
2023-05-20T06:14:29.303Z,102445.97
2023-05-20T06:16:56.018Z,102510.44
2023-05-20T06:19:22.686Z,102490.38
2023-05-20T06:21:49.224Z,102471.56
2023-05-20T06:24:16.067Z,102507.63
2023-05-20T06:26:42.739Z,102501.31
2023-05-20T06:29:09.284Z,102494.88
2023-05-20T06:31:35.849Z,102495.53
2023-05-20T06:34:02.362Z,102464.78
2023-05-20T06:36:29.718Z,102490.41
2023-05-20T06:38:56.792Z,102495.00
2023-05-20T06:41:23.255Z,102498.88
2023-05-20T06:43:51.773Z,102484.03
2023-05-20T06:46:19.648Z,102482.22
2023-05-20T06:48:46.170Z,102475.56
2023-05-20T06:51:12.651Z,102426.06
2023-05-20T06:53:39.229Z,102476.47
2023-05-20T06:56:05.893Z,102470.13
2023-05-20T06:58:32.836Z,102466.59
2023-05-20T07:00:59.362Z,102475.84
2023-05-20T07:03:25.962Z,102467.19
2023-05-20T07:05:53.039Z,102461.38
2023-05-20T07:08:19.581Z,102448.47
2023-05-20T07:10:46.808Z,102456.31
2023-05-20T07:13:13.278Z,102456.00
2023-05-20T07:15:39.789Z,102460.66
2023-05-20T07:18:06.568Z,102455.38
2023-05-20T07:20:33.279Z,102452.22
2023-05-20T07:23:00.924Z,102407.53
2023-05-20T07:25:27.647Z,102450.97
2023-05-20T07:27:54.204Z,102453.78
2023-05-20T07:30:21.080Z,102452.84
2023-05-20T07:32:47.574Z,102458.75
2023-05-20T07:35:14.057Z,102454.38
2023-05-20T07:37:40.892Z,102458.91
2023-05-20T07:40:08.140Z,102466.47
2023-05-20T07:42:35.337Z,102460.13
2023-05-20T07:45:02.090Z,102449.44
2023-05-20T07:47:28.652Z,102456.75
2023-05-20T07:49:55.523Z,102449.19
2023-05-20T07:52:22.390Z,102432.13
2023-05-20T07:54:48.875Z,102444.53
2023-05-20T07:57:15.405Z,102427.44
2023-05-20T07:59:41.898Z,102448.00
2023-05-20T08:02:08.766Z,102452.22
2023-05-20T08:04:36.122Z,102453.78
2023-05-20T08:07:02.885Z,102436.81
2023-05-20T08:09:31.758Z,102460.72
2023-05-20T08:11:58.325Z,102460.28
2023-05-20T08:14:24.876Z,102457.94
2023-05-20T08:16:54.492Z,102422.13
2023-05-20T08:19:21.422Z,102436.78
2023-05-20T08:21:48.421Z,102438.75
2023-05-20T08:24:14.849Z,102455.66
2023-05-20T08:26:41.528Z,102447.41
2023-05-20T08:29:08.391Z,102436.38
2023-05-20T08:31:34.986Z,102417.41
2023-05-20T08:34:01.515Z,102441.22
2023-05-20T08:36:27.946Z,102434.31
2023-05-20T08:38:55.761Z,102432.88
2023-05-20T08:41:22.734Z,102427.34
2023-05-20T08:43:51.351Z,102433.34
2023-05-20T08:46:18.799Z,102427.66
2023-05-20T08:48:45.365Z,102422.78
2023-05-20T08:51:11.915Z,102425.53
2023-05-20T08:53:38.344Z,102420.97
2023-05-20T08:56:05.520Z,102363.50
2023-05-20T08:58:35.751Z,102420.97
2023-05-20T09:01:02.461Z,102408.06
2023-05-20T09:03:29.115Z,102421.47
2023-05-20T09:06:04.446Z,102430.94
2023-05-20T09:08:31.149Z,102416.00
2023-05-20T09:10:57.792Z,102415.88
2023-05-20T09:13:24.761Z,102401.63
2023-05-20T09:15:51.664Z,102401.44
2023-05-20T09:18:18.625Z,102410.38
2023-05-20T09:20:48.219Z,102402.19
2023-05-20T09:23:14.769Z,102402.81
2023-05-20T09:25:41.513Z,102396.28
2023-05-20T09:28:08.838Z,102402.84
2023-05-20T09:30:35.743Z,102397.84
2023-05-20T09:33:05.156Z,102357.91
2023-05-20T09:38:04.927Z,102376.56
2023-05-20T09:40:31.516Z,102394.34
2023-05-20T09:43:07.407Z,102393.03
2023-05-20T09:45:34.261Z,102380.44
2023-05-20T09:48:02.978Z,102389.06
2023-05-20T09:50:30.475Z,102345.13
2023-05-20T09:53:01.771Z,102385.66
2023-05-20T09:55:29.622Z,102349.53
2023-05-20T09:57:56.712Z,102352.88
2023-05-20T10:00:23.156Z,102391.13
2023-05-20T10:02:53.579Z,102373.97
2023-05-20T10:05:24.223Z,102385.16
2023-05-20T10:08:09.219Z,102388.25
2023-05-20T10:10:41.656Z,102377.44
2023-05-20T10:13:25.583Z,102381.28
2023-05-20T10:16:30.383Z,102377.72
2023-05-20T10:19:23.023Z,102381.50
2023-05-20T10:22:06.128Z,102378.19
2023-05-20T10:24:41.232Z,102364.44
2023-05-20T10:27:10.617Z,102364.09
2023-05-20T10:29:43.610Z,102360.09
2023-05-20T10:32:10.292Z,102370.03
2023-05-20T10:34:48.031Z,102337.69
2023-05-20T10:37:26.870Z,102347.53
2023-05-20T10:40:03.712Z,102340.91
2023-05-20T10:42:32.880Z,102351.78
2023-05-20T10:44:59.422Z,102345.91
2023-05-20T10:47:26.627Z,102341.28
2023-05-20T10:49:53.222Z,102334.19
2023-05-20T10:52:20.702Z,102317.09
2023-05-20T10:54:55.547Z,102342.72
2023-05-20T10:57:22.625Z,102334.94
2023-05-20T10:59:49.921Z,102331.31
2023-05-20T11:02:17.247Z,102341.66
2023-05-20T11:04:44.653Z,102336.56
2023-05-20T11:07:11.462Z,102331.38
2023-05-20T11:09:38.277Z,102321.97
2023-05-20T11:12:05.394Z,102296.63
2023-05-20T11:14:32.062Z,102319.31
2023-05-20T11:16:59.870Z,102324.84
2023-05-20T11:19:27.514Z,102329.88
2023-05-20T11:21:54.258Z,102330.78
2023-05-20T11:24:28.221Z,102332.00
2023-05-20T11:26:56.063Z,102332.34
2023-05-20T11:29:22.793Z,102326.84
2023-05-20T11:31:51.313Z,102314.97
2023-05-20T11:34:24.858Z,102303.81
2023-05-20T11:36:59.476Z,102306.72
2023-05-20T11:39:30.381Z,102307.28
2023-05-20T11:41:57.912Z,102299.75
2023-05-20T11:44:24.782Z,102296.38
2023-05-20T11:46:51.300Z,102301.44
2023-05-20T11:49:17.837Z,102295.88
2023-05-20T11:51:44.870Z,102301.28
2023-05-20T11:54:11.740Z,102301.28
2023-05-20T11:56:41.381Z,102303.81
2023-05-20T11:59:10.161Z,102304.09
2023-05-20T12:01:40.759Z,102297.03
2023-05-20T12:04:08.386Z,102298.56
2023-05-20T12:06:37.538Z,102299.25
2023-05-20T12:09:09.036Z,102303.66
2023-05-20T12:11:41.301Z,102310.84
2023-05-20T12:14:08.905Z,102284.16
2023-05-20T12:16:37.295Z,102303.53
2023-05-20T12:19:04.235Z,102306.75
2023-05-20T12:21:31.503Z,102306.97
2023-05-20T12:23:59.966Z,102267.22
2023-05-20T12:26:28.427Z,102298.91
2023-05-20T12:28:55.343Z,102297.56
2023-05-20T12:31:22.056Z,102302.63
2023-05-20T12:33:48.536Z,102290.81
2023-05-20T12:36:15.391Z,102272.31
2023-05-20T12:38:42.144Z,102290.78
2023-05-20T12:41:08.672Z,102290.78
2023-05-20T12:43:37.361Z,102268.44
2023-05-20T12:46:04.222Z,102278.72
2023-05-20T12:48:30.963Z,102266.34
2023-05-20T12:50:57.446Z,102278.06
2023-05-20T12:53:24.074Z,102280.25
2023-05-20T12:55:50.889Z,102287.91
2023-05-20T12:58:17.438Z,102279.94
2023-05-20T13:00:44.076Z,102271.47
2023-05-20T13:03:11.200Z,102278.09
2023-05-20T13:05:38.017Z,102272.28
2023-05-20T13:08:04.718Z,102251.44
2023-05-20T13:10:31.688Z,102229.75
2023-05-20T13:12:58.315Z,102248.38
2023-05-20T13:15:24.848Z,102250.88
2023-05-20T13:17:51.323Z,102248.50
2023-05-20T13:20:19.157Z,102245.28
2023-05-20T13:22:46.313Z,102239.19
2023-05-20T13:25:12.827Z,102241.56
2023-05-20T13:27:39.370Z,102244.94
2023-05-20T13:30:06.856Z,102244.09
2023-05-20T13:32:33.533Z,102212.56
2023-05-20T13:35:00.419Z,102151.88
2023-05-20T13:37:26.942Z,102245.41
2023-05-20T13:39:53.448Z,102232.84
2023-05-20T13:42:21.417Z,102235.72
2023-05-20T13:44:50.325Z,102229.91
2023-05-20T13:47:16.917Z,102186.78
2023-05-20T13:49:43.372Z,102224.13
2023-05-20T13:52:09.935Z,102223.47
2023-05-20T13:54:36.553Z,102214.75
2023-05-20T13:57:07.685Z,102211.00
2023-05-20T13:59:35.040Z,102167.13
2023-05-20T14:02:02.290Z,102200.63
2023-05-20T14:04:29.234Z,102191.47
2023-05-20T14:06:56.226Z,102201.59
2023-05-20T14:09:22.932Z,102161.97
2023-05-20T14:11:51.360Z,102202.06
2023-05-20T14:14:17.810Z,102205.28
2023-05-20T14:16:44.273Z,102135.22
2023-05-20T14:19:10.870Z,102208.78
2023-05-20T14:21:37.428Z,102198.56
2023-05-20T14:24:03.925Z,102181.75
2023-05-20T14:26:30.502Z,102177.03
2023-05-20T14:28:56.996Z,102176.19
2023-05-20T14:31:23.616Z,102178.41
2023-05-20T14:33:50.149Z,102152.03
2023-05-20T14:36:17.096Z,102120.81
2023-05-20T14:38:43.529Z,102175.53
2023-05-20T14:41:12.911Z,102157.13
2023-05-20T14:43:39.429Z,102138.97
2023-05-20T14:46:06.018Z,102128.69
2023-05-20T14:48:32.479Z,102163.22
2023-05-20T14:50:58.984Z,102153.91
2023-05-20T14:53:25.784Z,102079.19
2023-05-20T14:55:52.250Z,102148.91
2023-05-20T14:58:18.722Z,102153.97
2023-05-20T15:00:45.404Z,102110.47
2023-05-20T15:03:11.982Z,102150.91
2023-05-20T15:05:38.731Z,102139.59
2023-05-20T15:08:05.242Z,102139.25
2023-05-20T15:10:31.936Z,102145.41
2023-05-20T15:12:58.410Z,102140.34
2023-05-20T15:15:25.183Z,102131.94
2023-05-20T15:17:51.680Z,102131.78
2023-05-20T15:20:18.192Z,102129.63
2023-05-20T15:22:48.244Z,102127.50
2023-05-20T15:25:14.821Z,102134.31
2023-05-20T15:27:44.727Z,102126.34
2023-05-20T15:30:11.910Z,102106.28
2023-05-20T15:32:39.753Z,102087.50
2023-05-20T15:35:06.880Z,102115.59
2023-05-20T15:37:33.304Z,102126.09
2023-05-20T15:40:00.149Z,102103.59
2023-05-20T15:42:26.836Z,102127.59
2023-05-20T15:44:53.279Z,102125.72
2023-05-20T15:47:21.203Z,102115.03
2023-05-20T15:49:47.664Z,102107.75
2023-05-20T15:52:14.678Z,102105.38
2023-05-20T15:54:41.406Z,102110.63
2023-05-20T15:57:07.866Z,102080.19
2023-05-20T15:59:34.367Z,102109.78
2023-05-20T16:02:01.028Z,102104.72
2023-05-20T16:04:27.621Z,102093.88
2023-05-20T16:06:54.222Z,102091.38
2023-05-20T16:09:21.147Z,102082.06
2023-05-20T16:11:47.645Z,102095.72
2023-05-20T16:14:14.096Z,102098.78
2023-05-20T16:16:40.833Z,102081.88
2023-05-20T16:19:08.506Z,102080.19
2023-05-20T16:21:35.084Z,102102.00
2023-05-20T16:24:01.532Z,102096.44
2023-05-20T16:26:31.411Z,102096.97
2023-05-20T16:28:57.959Z,102093.22
2023-05-20T16:31:24.508Z,102033.41
2023-05-20T16:33:51.266Z,102088.19
2023-05-20T16:36:17.812Z,102083.13
2023-05-20T16:38:52.545Z,102062.00
2023-05-20T16:41:19.026Z,102030.91
2023-05-20T16:43:46.220Z,102071.63
2023-05-20T16:46:14.523Z,102072.81
2023-05-20T16:48:41.353Z,102078.41
2023-05-20T16:51:07.824Z,102065.88
2023-05-20T16:53:34.330Z,102066.06
2023-05-20T16:56:00.846Z,102075.72
2023-05-20T16:58:27.256Z,102082.31
2023-05-20T17:00:55.293Z,102056.81
2023-05-20T17:03:21.914Z,102086.59
2023-05-20T17:05:48.377Z,102081.50
2023-05-20T17:08:15.018Z,102065.97
2023-05-20T17:10:41.539Z,102041.09
2023-05-20T17:13:08.002Z,102079.00
2023-05-20T17:15:37.150Z,102069.19
2023-05-20T17:18:04.102Z,102039.78
2023-05-20T17:20:31.206Z,102053.63
2023-05-20T17:22:57.765Z,102082.88
2023-05-20T17:25:24.380Z,102036.34
2023-05-20T17:27:51.523Z,102059.22
2023-05-20T17:30:18.078Z,102037.72
2023-05-20T17:32:44.695Z,102048.06
2023-05-20T17:35:11.525Z,102083.22
2023-05-20T17:37:38.194Z,102067.69
2023-05-20T17:40:07.763Z,102059.72
2023-05-20T17:42:34.229Z,102053.78
2023-05-20T17:45:00.817Z,102076.63
2023-05-20T17:47:27.314Z,102070.69
2023-05-20T17:50:16.551Z,102067.66
2023-05-20T17:52:43.125Z,102051.41
2023-05-20T17:55:09.846Z,102056.66
2023-05-20T17:57:36.686Z,102059.38
2023-05-20T18:00:05.440Z,102061.56
2023-05-20T18:02:32.098Z,102011.47
2023-05-20T18:04:58.696Z,102062.22
2023-05-20T18:07:26.451Z,102065.41
2023-05-20T18:09:52.881Z,102044.97
2023-05-20T18:12:19.337Z,102040.88
2023-05-20T18:14:46.030Z,102053.75
2023-05-20T18:17:12.563Z,102057.63
2023-05-20T18:19:39.012Z,102012.91
2023-05-20T18:22:07.260Z,102056.78
2023-05-20T18:24:33.850Z,101990.91
2023-05-20T18:27:00.520Z,102018.81
2023-05-20T18:29:27.083Z,102042.34
2023-05-20T18:31:53.634Z,102013.72
2023-05-20T18:34:20.130Z,102059.44
2023-05-20T18:36:47.047Z,102060.91
2023-05-20T18:39:15.993Z,102058.53
2023-05-20T18:41:47.262Z,102056.16
2023-05-20T18:44:18.416Z,102059.34
2023-05-20T18:46:45.597Z,102063.53
2023-05-20T18:49:12.275Z,101980.09
2023-05-20T18:51:39.439Z,102068.94
2023-05-20T18:54:06.096Z,102021.00
2023-05-20T18:56:32.717Z,102007.94
2023-05-20T18:58:59.810Z,102054.13
2023-05-20T19:01:27.063Z,102064.06
2023-05-20T19:03:53.574Z,102077.56
2023-05-20T19:06:20.259Z,102076.31
2023-05-20T19:08:49.049Z,102077.66
2023-05-20T19:11:15.724Z,102086.56
2023-05-20T19:13:42.212Z,102076.72
2023-05-20T19:16:08.772Z,102077.63
2023-05-20T19:18:35.432Z,102047.91
2023-05-20T19:21:01.886Z,102079.84
2023-05-20T19:23:28.340Z,102064.34
2023-05-20T19:25:54.854Z,102073.34
2023-05-20T19:28:21.536Z,102079.16
2023-05-20T19:30:48.283Z,102083.06
2023-05-20T19:33:14.888Z,102064.78
2023-05-20T19:35:41.601Z,102089.44
2023-05-20T19:38:08.148Z,102036.19
2023-05-20T19:40:35.585Z,102080.50
2023-05-20T19:43:02.225Z,102092.69
2023-05-20T19:45:28.668Z,102040.88
2023-05-20T19:47:56.733Z,102048.94
2023-05-20T19:50:23.237Z,102086.00
2023-05-20T19:52:49.926Z,102081.63
2023-05-20T19:55:16.482Z,102095.66
2023-05-20T19:57:46.428Z,102098.63
2023-05-20T20:00:13.541Z,102041.81
2023-05-20T20:02:40.558Z,102073.31
2023-05-20T20:05:07.543Z,102078.56
2023-05-20T20:07:34.176Z,102081.25
2023-05-20T20:10:00.679Z,102087.06
2023-05-20T20:12:27.217Z,102085.38
2023-05-20T20:14:53.719Z,102089.19
2023-05-20T20:17:23.335Z,102081.16
2023-05-20T20:19:52.875Z,102059.81
2023-05-20T20:22:19.533Z,102085.53
2023-05-20T20:24:46.068Z,102077.19
2023-05-20T20:27:13.277Z,102088.66
2023-05-20T20:29:42.823Z,102087.09
2023-05-20T20:32:09.472Z,102079.50
2023-05-20T20:34:36.140Z,102084.72
2023-05-20T20:37:02.750Z,102092.09
2023-05-20T20:39:29.719Z,102089.53
2023-05-20T20:41:58.692Z,102085.28
2023-05-20T20:44:25.544Z,102088.69
2023-05-20T20:46:54.756Z,102087.00
2023-05-20T20:49:22.730Z,102092.38
2023-05-20T20:51:50.045Z,102085.28
2023-05-20T20:54:16.819Z,102088.00
2023-05-20T20:56:45.472Z,102077.38
2023-05-20T20:59:16.026Z,102071.97
2023-05-20T21:01:44.545Z,102074.09
2023-05-20T21:04:13.807Z,102061.66
2023-05-20T21:06:46.084Z,102067.72
2023-05-20T21:09:16.388Z,102078.78
2023-05-20T21:11:43.258Z,102063.19
2023-05-20T21:14:10.498Z,102082.47
2023-05-20T21:16:37.337Z,102062.66
2023-05-20T21:19:03.961Z,102036.47
2023-05-20T21:21:31.576Z,102069.56
2023-05-20T21:23:58.224Z,102071.69
2023-05-20T21:26:25.749Z,102046.94
2023-05-20T21:28:52.810Z,102062.34
2023-05-20T21:31:19.944Z,102044.25
2023-05-20T21:33:46.550Z,102066.88
2023-05-20T21:36:13.047Z,102063.50
2023-05-20T21:38:39.956Z,102057.97
2023-05-20T21:41:06.583Z,102042.84
2023-05-20T21:43:33.061Z,102027.00
2023-05-20T21:45:59.689Z,102045.94
2023-05-20T21:48:26.192Z,102049.63
2023-05-20T21:50:52.627Z,102037.19
2023-05-20T21:53:19.214Z,102040.00
2023-05-20T21:55:45.823Z,102034.06
2023-05-20T21:58:12.430Z,102029.13
2023-05-20T22:00:39.024Z,102036.22
2023-05-20T22:03:05.520Z,102033.53
2023-05-20T22:05:34.578Z,101996.44
2023-05-20T22:08:02.068Z,102015.81
2023-05-20T22:10:28.490Z,102037.75
2023-05-20T22:12:55.673Z,102014.53
2023-05-20T22:15:22.919Z,102036.34
2023-05-20T22:17:49.587Z,102023.91
2023-05-20T22:20:16.780Z,102037.78
2023-05-20T22:22:43.259Z,102035.50
2023-05-20T22:25:09.973Z,102020.78
2023-05-20T22:27:36.442Z,102016.97
2023-05-20T22:30:05.977Z,102019.38
2023-05-20T22:32:33.034Z,102022.59
2023-05-20T22:34:59.686Z,102027.59
2023-05-20T22:37:28.739Z,102018.94
2023-05-20T22:39:55.997Z,102017.53
2023-05-20T22:42:22.634Z,102006.78
2023-05-20T22:44:49.125Z,102009.59
2023-05-20T22:47:15.948Z,101998.31
2023-05-20T22:49:42.606Z,101998.44
2023-05-20T22:52:09.181Z,101990.53
2023-05-20T22:54:35.749Z,102002.13
2023-05-20T22:57:02.208Z,101989.09
2023-05-20T22:59:31.078Z,101992.50
2023-05-20T23:01:57.822Z,101971.16
2023-05-20T23:04:24.334Z,101981.19
2023-05-20T23:06:53.696Z,101984.72
2023-05-20T23:09:20.443Z,101978.75
2023-05-20T23:11:46.938Z,101963.06
2023-05-20T23:14:13.388Z,101987.53
2023-05-20T23:16:41.986Z,101975.38
2023-05-20T23:19:08.905Z,101978.91
2023-05-20T23:21:35.495Z,101982.56
2023-05-20T23:24:01.933Z,101943.84
2023-05-20T23:26:28.847Z,101961.94
2023-05-20T23:28:55.862Z,101970.44
2023-05-20T23:31:22.559Z,101970.44
2023-05-20T23:33:49.264Z,101966.91
2023-05-20T23:36:17.189Z,101960.09
2023-05-20T23:38:43.748Z,101964.50
2023-05-20T23:41:10.304Z,101960.09
2023-05-20T23:43:37.029Z,101921.19
2023-05-20T23:46:03.565Z,101949.78
2023-05-20T23:48:29.987Z,101952.75
2023-05-20T23:50:56.431Z,101933.31
2023-05-20T23:53:22.863Z,101946.69
2023-05-20T23:55:49.535Z,101912.56
2023-05-20T23:58:16.677Z,101942.69
